Time;durP1;ratioP1;P1;durP2;ratioP2;P2;SDS_P1;SDS_P2;PMS_P1;PMS_P2;Temp;Humidity;BMP_temperature;BMP_pressure;BME280_temperature;BME280_humidity;BME280_pressure;Samples;Min_cycle;Max_cycle;Signal;HPM_P1;HPM_P2
2021/11/23 00:01:53;;;;;;;63.10;28.07;;;5.00;99.90;;;;;;4127405;28;20832;-59
2021/11/23 00:03:54;;;;;;;68.40;31.20;;;5.00;99.90;;;;;;4126678;28;20038;-56
2021/11/23 00:05:55;;;;;;;65.83;30.10;;;5.00;99.90;;;;;;4127653;28;20268;-56
2021/11/23 00:07:57;;;;;;;66.03;29.77;;;5.00;99.90;;;;;;4126262;28;20150;-57
2021/11/23 00:09:58;;;;;;;58.03;28.27;;;5.00;99.90;;;;;;4127291;28;20034;-58
2021/11/23 00:11:59;;;;;;;54.67;25.03;;;4.90;99.90;;;;;;4125899;28;20038;-59
2021/11/23 00:14:00;;;;;;;54.33;27.53;;;4.90;99.90;;;;;;4127132;28;20434;-57
2021/11/23 00:16:01;;;;;;;55.23;24.57;;;4.90;99.90;;;;;;4125135;28;20268;-55
2021/11/23 00:18:05;;;;;;;51.57;25.43;;;4.90;99.90;;;;;;4126713;28;20280;-57
2021/11/23 00:20:07;;;;;;;54.47;25.83;;;4.90;99.90;;;;;;4125082;28;20330;-63
2021/11/23 00:22:08;;;;;;;55.90;25.07;;;4.90;99.90;;;;;;4126338;28;20264;-58
2021/11/23 00:24:10;;;;;;;57.90;25.53;;;4.90;99.90;;;;;;4126630;28;20108;-54
2021/11/23 00:26:12;;;;;;;55.13;26.70;;;4.90;99.90;;;;;;4126324;28;20317;-57
2021/11/23 00:28:13;;;;;;;57.90;25.27;;;4.90;99.90;;;;;;4126969;28;20026;-57
2021/11/23 00:30:15;;;;;;;44.80;23.27;;;4.90;99.90;;;;;;4126097;28;20426;-61
2021/11/23 00:32:16;;;;;;;53.67;24.33;;;4.90;99.90;;;;;;4126452;28;20276;-57
2021/11/23 00:34:17;;;;;;;49.40;25.10;;;4.90;99.90;;;;;;4126469;28;20307;-60
2021/11/23 00:36:18;;;;;;;45.30;22.23;;;4.90;99.90;;;;;;4127149;28;20031;-56
2021/11/23 00:38:19;;;;;;;47.50;23.50;;;4.90;99.90;;;;;;4118270;28;20300;-53
2021/11/23 00:40:21;;;;;;;43.43;21.57;;;4.90;99.90;;;;;;4111036;28;20086;-59
2021/11/23 00:42:22;;;;;;;46.57;22.00;;;4.90;99.90;;;;;;4109946;28;20277;-58
2021/11/23 00:44:23;;;;;;;51.30;24.47;;;4.90;99.90;;;;;;4117669;28;20660;-59
2021/11/23 00:46:24;;;;;;;49.43;23.90;;;4.90;99.90;;;;;;4125997;28;20264;-55
2021/11/23 00:48:25;;;;;;;52.63;24.57;;;4.90;99.90;;;;;;4126873;28;20814;-56
2021/11/23 00:50:28;;;;;;;43.57;22.53;;;4.90;99.90;;;;;;4125712;28;20276;-58
2021/11/23 00:52:29;;;;;;;50.57;24.50;;;4.90;99.90;;;;;;4126201;28;20268;-56
2021/11/23 00:54:30;;;;;;;53.67;24.10;;;4.90;99.90;;;;;;4125711;28;20292;-56
2021/11/23 00:56:31;;;;;;;48.20;23.97;;;4.90;99.90;;;;;;4126012;28;20342;-58
2021/11/23 00:58:34;;;;;;;51.37;23.37;;;4.90;99.90;;;;;;4126257;28;20260;-59
2021/11/23 01:00:35;;;;;;;52.37;24.23;;;4.90;99.90;;;;;;4125793;28;20307;-58
2021/11/23 01:02:37;;;;;;;47.43;23.07;;;4.90;99.90;;;;;;4126708;28;20748;-55
2021/11/23 01:04:38;;;;;;;50.23;25.03;;;4.90;99.90;;;;;;4126077;28;20330;-58
2021/11/23 01:06:40;;;;;;;48.27;23.60;;;4.90;99.90;;;;;;4126870;28;20865;-58
2021/11/23 01:08:43;;;;;;;48.60;22.87;;;4.90;99.90;;;;;;4125736;28;20280;-58
2021/11/23 01:10:45;;;;;;;47.53;24.03;;;4.90;99.90;;;;;;4126014;28;20288;-57
2021/11/23 01:12:46;;;;;;;54.47;23.77;;;4.90;99.90;;;;;;4124640;28;20335;-60
2021/11/23 01:14:47;;;;;;;48.67;23.23;;;4.90;99.90;;;;;;4126497;28;20350;-61
2021/11/23 01:16:49;;;;;;;49.23;23.23;;;4.90;99.90;;;;;;4123591;28;20277;-58
2021/11/23 01:18:50;;;;;;;47.83;22.63;;;4.90;99.90;;;;;;4126167;28;20077;-55
2021/11/23 01:20:51;;;;;;;41.43;21.13;;;4.90;99.90;;;;;;4125038;28;20287;-58
2021/11/23 01:22:52;;;;;;;44.53;24.00;;;4.80;99.90;;;;;;4126203;28;20334;-59
2021/11/23 01:24:54;;;;;;;42.87;22.13;;;4.90;99.90;;;;;;4124971;28;20309;-58
2021/11/23 01:26:55;;;;;;;49.67;23.03;;;4.90;99.90;;;;;;4125074;28;20346;-56
2021/11/23 01:28:56;;;;;;;45.27;23.23;;;4.80;99.90;;;;;;4124591;28;20709;-60
2021/11/23 01:30:57;;;;;;;48.30;22.73;;;4.80;99.90;;;;;;4125175;28;20748;-61
2021/11/23 01:32:58;;;;;;;48.07;22.57;;;4.80;99.90;;;;;;4125908;28;20323;-58
2021/11/23 01:35:00;;;;;;;47.37;21.67;;;4.80;99.90;;;;;;4125307;28;20332;-57
2021/11/23 01:37:01;;;;;;;43.63;21.33;;;4.80;99.90;;;;;;4125756;28;20276;-59
2021/11/23 01:39:03;;;;;;;47.13;22.73;;;4.80;99.90;;;;;;4124280;28;20312;-60
2021/11/23 01:41:04;;;;;;;44.47;21.90;;;4.80;99.90;;;;;;4125678;28;20280;-60
2021/11/23 01:43:06;;;;;;;45.67;22.13;;;4.80;99.90;;;;;;4124081;28;20768;-60
2021/11/23 01:45:08;;;;;;;46.23;22.53;;;4.80;99.90;;;;;;4125672;28;20292;-53
2021/11/23 01:47:09;;;;;;;52.70;24.87;;;4.80;99.90;;;;;;4124306;28;20054;-58
2021/11/23 01:49:10;;;;;;;49.57;24.40;;;4.80;99.90;;;;;;4125916;28;20280;-59
2021/11/23 01:51:12;;;;;;;47.70;23.07;;;4.80;99.90;;;;;;4124537;28;20700;-56
2021/11/23 01:53:13;;;;;;;59.77;30.40;;;4.80;99.90;;;;;;4124457;28;20676;-58
2021/11/23 01:55:15;;;;;;;53.10;28.10;;;4.80;99.90;;;;;;4124822;28;20045;-57
2021/11/23 01:57:16;;;;;;;52.73;26.83;;;4.80;99.90;;;;;;4125650;28;20784;-56
2021/11/23 01:59:17;;;;;;;53.90;27.83;;;4.80;99.90;;;;;;4122870;28;20280;-57
2021/11/23 02:01:19;;;;;;;53.63;28.17;;;4.80;99.90;;;;;;4124501;28;20327;-58
2021/11/23 02:03:20;;;;;;;51.93;26.50;;;4.80;99.90;;;;;;4124998;28;20280;-57
2021/11/23 02:05:21;;;;;;;50.73;25.33;;;4.80;99.90;;;;;;4124701;28;20268;-56
2021/11/23 02:07:22;;;;;;;44.13;22.97;;;4.90;99.90;;;;;;4125130;28;20655;-57
2021/11/23 02:09:24;;;;;;;52.00;25.30;;;4.90;99.90;;;;;;4124414;28;20330;-57
2021/11/23 02:11:25;;;;;;;49.47;24.87;;;4.90;99.90;;;;;;4125479;28;20342;-56
2021/11/23 02:13:29;;;;;;;41.40;21.10;;;4.90;99.90;;;;;;4123110;28;20296;-55
2021/11/23 02:15:31;;;;;;;48.83;23.07;;;4.90;99.90;;;;;;4125232;28;20050;-57
2021/11/23 02:17:33;;;;;;;51.70;23.33;;;4.90;99.90;;;;;;4124126;28;20768;-58
2021/11/23 02:19:34;;;;;;;55.73;23.80;;;4.90;99.90;;;;;;4125188;28;20330;-59
2021/11/23 02:21:36;;;;;;;49.90;24.10;;;4.90;99.90;;;;;;4124306;28;20358;-59
2021/11/23 02:23:37;;;;;;;53.77;23.67;;;4.90;99.90;;;;;;4124776;28;20284;-59
2021/11/23 02:25:39;;;;;;;46.47;21.73;;;4.90;99.90;;;;;;4124388;28;20272;-58
2021/11/23 02:27:42;;;;;;;55.67;25.60;;;4.90;99.90;;;;;;4125250;28;20260;-57
2021/11/23 02:29:43;;;;;;;48.33;21.87;;;5.00;99.90;;;;;;4124267;28;20268;-54
2021/11/23 02:31:44;;;;;;;47.80;21.67;;;4.90;99.90;;;;;;4124521;28;20276;-58
2021/11/23 02:33:45;;;;;;;52.47;23.97;;;4.90;99.90;;;;;;4123649;28;20354;-61
2021/11/23 02:35:49;;;;;;;50.73;23.50;;;5.00;99.90;;;;;;4124892;28;20466;-60
2021/11/23 02:37:53;;;;;;;50.50;22.47;;;5.00;99.90;;;;;;4123886;28;20311;-60
2021/11/23 02:39:54;;;;;;;53.73;24.63;;;5.00;99.90;;;;;;4123777;28;20747;-57
2021/11/23 02:41:56;;;;;;;43.07;21.47;;;5.00;99.90;;;;;;4123085;28;20272;-58
2021/11/23 02:43:57;;;;;;;45.27;21.27;;;5.00;99.90;;;;;;4123904;28;20771;-58
2021/11/23 02:45:58;;;;;;;37.60;18.83;;;5.00;99.90;;;;;;4124764;28;20085;-58
2021/11/23 02:48:01;;;;;;;45.33;20.87;;;5.00;99.90;;;;;;4123817;28;20030;-61
2021/11/23 02:50:03;;;;;;;36.53;17.80;;;5.10;99.90;;;;;;4124688;28;20256;-60
2021/11/23 02:52:08;;;;;;;41.23;19.23;;;5.10;99.90;;;;;;4108112;28;20264;-59
2021/11/23 02:54:09;;;;;;;43.43;20.10;;;5.10;99.90;;;;;;4109139;28;20086;-60
2021/11/23 02:56:11;;;;;;;43.00;20.17;;;5.10;99.90;;;;;;4107906;28;20031;-58
2021/11/23 02:58:12;;;;;;;40.30;18.50;;;5.10;99.90;;;;;;4108641;28;20261;-61
2021/11/23 03:00:17;;;;;;;41.53;18.67;;;5.10;99.90;;;;;;4123892;28;20081;-63
2021/11/23 03:02:18;;;;;;;39.30;19.10;;;5.10;99.90;;;;;;4124420;28;20284;-58
2021/11/23 03:04:19;;;;;;;40.33;18.00;;;5.10;99.90;;;;;;4123606;28;20426;-58
2021/11/23 03:06:21;;;;;;;43.87;20.90;;;5.10;99.90;;;;;;4124713;28;20438;-57
2021/11/23 03:08:23;;;;;;;49.83;23.40;;;5.10;99.90;;;;;;4124325;28;20038;-59
2021/11/23 03:10:27;;;;;;;49.13;21.80;;;5.10;99.90;;;;;;4123781;28;21004;-60
2021/11/23 03:12:28;;;;;;;41.73;19.10;;;5.10;99.90;;;;;;4123852;28;20046;-58
2021/11/23 03:14:29;;;;;;;39.87;19.10;;;5.10;99.90;;;;;;4122806;28;20483;-59
2021/11/23 03:16:31;;;;;;;39.93;17.97;;;5.10;99.90;;;;;;4124898;28;20059;-58
2021/11/23 03:18:32;;;;;;;39.73;17.47;;;5.10;99.90;;;;;;4123511;28;20490;-61
2021/11/23 03:20:33;;;;;;;47.23;19.00;;;5.20;99.90;;;;;;4125007;28;20100;-59
2021/11/23 03:22:34;;;;;;;41.00;18.27;;;5.20;99.90;;;;;;4123027;28;20089;-60
2021/11/23 03:24:36;;;;;;;40.37;18.93;;;5.20;99.90;;;;;;4124486;28;20059;-58
2021/11/23 03:26:37;;;;;;;41.80;17.93;;;5.20;99.90;;;;;;4123094;28;20334;-59
2021/11/23 03:28:38;;;;;;;36.47;18.33;;;5.20;99.90;;;;;;4125122;28;20284;-60
2021/11/23 03:30:40;;;;;;;38.57;18.13;;;5.20;99.90;;;;;;4123157;28;20089;-56
2021/11/23 03:32:41;;;;;;;39.83;19.83;;;5.20;99.90;;;;;;4123310;28;20046;-60
2021/11/23 03:34:43;;;;;;;40.27;19.43;;;5.20;99.90;;;;;;4123502;28;20050;-59
2021/11/23 03:36:44;;;;;;;42.70;19.60;;;5.20;99.90;;;;;;4123930;28;20108;-57
2021/11/23 03:38:45;;;;;;;38.00;18.53;;;5.20;99.90;;;;;;4123930;28;20533;-59
2021/11/23 03:40:47;;;;;;;37.60;19.43;;;5.30;99.90;;;;;;4123910;28;20511;-58
2021/11/23 03:42:48;;;;;;;36.67;17.67;;;5.20;99.90;;;;;;4123700;28;20112;-60
2021/11/23 03:44:49;;;;;;;40.00;20.40;;;5.20;99.90;;;;;;4123564;28;21158;-59
2021/11/23 03:46:50;;;;;;;42.13;17.73;;;5.20;99.90;;;;;;4124253;28;20125;-57
2021/11/23 03:48:52;;;;;;;36.87;18.63;;;5.20;99.90;;;;;;4123667;28;20458;-62
2021/11/23 03:50:53;;;;;;;42.77;19.67;;;5.20;99.90;;;;;;4127176;28;20042;-60
2021/11/23 03:52:56;;;;;;;42.57;19.37;;;5.30;99.90;;;;;;4126403;28;20260;-57
2021/11/23 03:54:57;;;;;;;41.37;17.90;;;5.20;99.90;;;;;;4126862;28;20561;-59
2021/11/23 03:56:58;;;;;;;44.27;19.03;;;5.30;99.90;;;;;;4125817;28;20076;-57
2021/11/23 03:59:00;;;;;;;39.10;18.03;;;5.30;99.90;;;;;;4127840;28;20065;-60
2021/11/23 04:01:01;;;;;;;42.47;20.70;;;5.30;99.90;;;;;;4126376;28;20096;-55
2021/11/23 04:03:02;;;;;;;42.67;18.23;;;5.30;99.90;;;;;;4127580;28;20034;-60
2021/11/23 04:05:04;;;;;;;43.23;19.40;;;5.30;99.90;;;;;;4126476;28;20034;-58
2021/11/23 04:07:05;;;;;;;43.13;19.17;;;5.30;99.90;;;;;;4126746;28;20550;-60
2021/11/23 04:09:07;;;;;;;40.40;18.33;;;5.30;99.90;;;;;;4126035;28;20073;-58
2021/11/23 04:11:08;;;;;;;48.07;19.23;;;5.30;99.90;;;;;;4126549;28;20058;-58
2021/11/23 04:13:09;;;;;;;40.50;18.37;;;5.30;99.90;;;;;;4126301;28;20073;-53
2021/11/23 04:15:10;;;;;;;45.57;19.77;;;5.20;99.90;;;;;;4125299;28;20105;-61
2021/11/23 04:17:11;;;;;;;46.33;20.57;;;5.20;99.90;;;;;;4127401;28;21004;-56
2021/11/23 04:19:14;;;;;;;48.57;22.10;;;5.20;99.90;;;;;;4125997;28;20772;-57
2021/11/23 04:21:15;;;;;;;43.20;20.20;;;5.20;99.90;;;;;;4126792;28;20050;-59
2021/11/23 04:23:17;;;;;;;43.97;19.00;;;5.20;99.90;;;;;;4125427;28;20042;-60
2021/11/23 04:25:18;;;;;;;40.20;17.07;;;5.20;99.90;;;;;;4127296;28;20077;-58
2021/11/23 04:27:19;;;;;;;39.67;18.17;;;5.20;99.90;;;;;;4125956;28;20525;-58
2021/11/23 04:29:20;;;;;;;40.23;18.70;;;5.20;99.90;;;;;;4127150;28;20081;-58
2021/11/23 04:31:21;;;;;;;50.17;18.67;;;5.20;99.90;;;;;;4126141;28;20026;-58
2021/11/23 04:33:23;;;;;;;36.43;17.73;;;5.20;99.90;;;;;;4126852;28;20272;-59
2021/11/23 04:35:24;;;;;;;36.13;15.67;;;5.20;99.90;;;;;;4125912;28;20042;-56
2021/11/23 04:37:25;;;;;;;33.73;16.07;;;5.20;99.90;;;;;;4125963;28;20105;-56
2021/11/23 04:39:26;;;;;;;40.43;16.13;;;5.20;99.90;;;;;;4125561;28;20128;-59
2021/11/23 04:41:28;;;;;;;36.30;15.67;;;5.20;99.90;;;;;;4126104;28;20311;-60
2021/11/23 04:43:30;;;;;;;39.03;16.30;;;5.20;99.90;;;;;;4126717;28;20334;-60
2021/11/23 04:45:32;;;;;;;36.80;16.07;;;5.20;99.90;;;;;;4124476;28;20042;-58
2021/11/23 04:47:34;;;;;;;36.97;15.17;;;5.20;99.90;;;;;;4126248;28;20326;-58
2021/11/23 04:49:35;;;;;;;34.67;15.70;;;5.20;99.90;;;;;;4125249;28;20318;-58
2021/11/23 04:51:37;;;;;;;35.53;15.20;;;5.30;99.90;;;;;;4126581;28;20288;-59
2021/11/23 04:53:38;;;;;;;32.37;14.83;;;5.20;99.90;;;;;;4125344;28;20620;-58
2021/11/23 04:55:39;;;;;;;37.37;14.83;;;5.30;99.90;;;;;;4125525;28;20334;-58
2021/11/23 04:57:41;;;;;;;39.47;16.27;;;5.30;99.90;;;;;;4125465;28;20034;-57
2021/11/23 04:59:42;;;;;;;37.17;15.40;;;5.30;99.90;;;;;;4125498;28;20034;-58
2021/11/23 05:01:44;;;;;;;43.57;16.83;;;5.30;99.90;;;;;;4124112;28;20280;-62
2021/11/23 05:03:45;;;;;;;34.53;16.07;;;5.30;99.90;;;;;;4126533;28;20413;-59
2021/11/23 05:05:46;;;;;;;38.80;15.77;;;5.30;99.90;;;;;;4124855;28;20034;-60
2021/11/23 05:07:47;;;;;;;33.90;15.20;;;5.40;99.90;;;;;;4125707;28;20042;-58
2021/11/23 05:09:48;;;;;;;46.70;17.90;;;5.40;99.90;;;;;;4125312;28;20248;-58
2021/11/23 05:11:49;;;;;;;40.40;16.67;;;5.40;99.90;;;;;;4125400;28;20085;-59
2021/11/23 05:13:50;;;;;;;43.07;17.53;;;5.40;99.90;;;;;;4124823;28;20286;-65
2021/11/23 05:15:51;;;;;;;42.87;16.87;;;5.40;99.90;;;;;;4125008;28;20061;-57
2021/11/23 05:17:52;;;;;;;38.53;16.63;;;5.40;99.90;;;;;;4125064;28;20042;-54
2021/11/23 05:19:54;;;;;;;38.47;18.27;;;5.50;99.90;;;;;;4117407;28;20346;-56
2021/11/23 05:21:55;;;;;;;42.67;16.17;;;5.50;99.90;;;;;;4125305;28;20643;-60
2021/11/23 05:23:56;;;;;;;40.90;17.23;;;5.50;99.90;;;;;;4123731;28;20092;-58
2021/11/23 05:25:58;;;;;;;34.63;16.10;;;5.60;99.90;;;;;;4123838;28;20276;-56
2021/11/23 05:27:59;;;;;;;40.13;16.20;;;5.50;99.90;;;;;;4123817;28;20042;-56
2021/11/23 05:30:02;;;;;;;39.20;16.93;;;5.50;99.90;;;;;;4125622;28;20097;-57
2021/11/23 05:32:03;;;;;;;37.63;15.00;;;5.50;99.90;;;;;;4123802;28;20039;-56
2021/11/23 05:34:04;;;;;;;34.47;15.73;;;5.50;99.90;;;;;;4124996;28;20046;-55
2021/11/23 05:36:06;;;;;;;35.37;15.07;;;5.50;99.90;;;;;;4124945;28;20092;-54
2021/11/23 05:38:08;;;;;;;40.97;17.73;;;5.50;99.90;;;;;;4124316;28;20364;-55
2021/11/23 05:40:10;;;;;;;43.20;18.27;;;5.40;99.90;;;;;;4123889;28;20288;-56
2021/11/23 05:42:12;;;;;;;41.83;17.73;;;5.40;99.90;;;;;;4124589;28;20046;-58
2021/11/23 05:44:13;;;;;;;39.17;16.17;;;5.40;99.90;;;;;;4123497;28;20121;-58
2021/11/23 05:46:14;;;;;;;34.90;15.27;;;5.40;99.90;;;;;;4106924;28;20042;-58
2021/11/23 05:48:15;;;;;;;46.77;18.23;;;5.30;99.90;;;;;;4125149;28;20046;-57
2021/11/23 05:50:16;;;;;;;33.50;15.83;;;5.40;99.90;;;;;;4124234;28;20080;-59
2021/11/23 05:52:18;;;;;;;44.33;17.60;;;5.40;99.90;;;;;;4125193;28;20669;-57
2021/11/23 05:54:20;;;;;;;36.87;15.77;;;5.40;99.90;;;;;;4123770;28;20280;-57
2021/11/23 05:56:21;;;;;;;34.47;16.33;;;5.40;99.90;;;;;;4125228;28;20260;-57
2021/11/23 05:58:22;;;;;;;31.67;14.87;;;5.40;99.90;;;;;;4124191;28;20463;-57
2021/11/23 06:00:23;;;;;;;31.97;14.67;;;5.40;99.90;;;;;;4124843;28;20030;-58
2021/11/23 06:02:24;;;;;;;35.77;15.77;;;5.40;99.90;;;;;;4123977;28;20074;-57
2021/11/23 06:04:26;;;;;;;34.87;15.03;;;5.40;99.90;;;;;;4125656;28;20057;-55
2021/11/23 06:06:27;;;;;;;34.27;16.07;;;5.40;99.90;;;;;;4121753;28;20039;-60
2021/11/23 06:08:28;;;;;;;36.07;16.47;;;5.40;99.90;;;;;;4124502;28;20054;-61
2021/11/23 06:10:29;;;;;;;28.37;14.40;;;5.40;99.90;;;;;;4124510;28;20064;-60
2021/11/23 06:12:31;;;;;;;30.87;14.13;;;5.40;99.90;;;;;;4124583;28;20034;-62
2021/11/23 06:14:32;;;;;;;33.07;15.20;;;5.40;99.90;;;;;;4123904;28;20350;-59
2021/11/23 06:16:36;;;;;;;28.43;13.30;;;5.40;99.90;;;;;;4124056;28;20034;-58
2021/11/23 06:18:37;;;;;;;30.70;13.47;;;5.40;99.90;;;;;;4122506;28;20108;-64
2021/11/23 06:20:38;;;;;;;30.43;13.97;;;5.40;99.90;;;;;;4123948;28;20091;-59
2021/11/23 06:22:40;;;;;;;31.03;14.93;;;5.40;99.90;;;;;;4125209;28;20132;-58
2021/11/23 06:24:41;;;;;;;28.40;13.93;;;5.40;99.90;;;;;;4123757;28;20100;-59
2021/11/23 06:26:42;;;;;;;29.67;13.57;;;5.40;99.90;;;;;;4124942;28;20522;-57
2021/11/23 06:28:43;;;;;;;33.40;15.60;;;5.40;99.90;;;;;;4123952;28;20458;-58
2021/11/23 06:30:45;;;;;;;37.00;18.57;;;5.40;99.90;;;;;;4124968;28;20038;-62
2021/11/23 06:32:47;;;;;;;61.13;25.33;;;5.40;99.90;;;;;;4123726;28;20045;-56
2021/11/23 06:34:48;;;;;;;50.93;22.33;;;5.40;99.90;;;;;;4124926;28;20034;-58
2021/11/23 06:36:49;;;;;;;43.00;19.00;;;5.40;99.90;;;;;;4123125;28;20045;-58
2021/11/23 06:38:51;;;;;;;77.17;31.93;;;5.40;99.90;;;;;;4124383;28;20438;-65
2021/11/23 06:40:52;;;;;;;41.13;19.27;;;5.40;99.90;;;;;;4123700;28;20034;-59
2021/11/23 06:42:53;;;;;;;37.20;17.43;;;5.40;99.90;;;;;;4124597;28;20268;-57
2021/11/23 06:44:54;;;;;;;58.10;24.83;;;5.40;99.90;;;;;;4123972;28;20097;-56
2021/11/23 06:46:55;;;;;;;72.67;31.17;;;5.40;99.90;;;;;;4123817;28;20628;-60
2021/11/23 06:48:57;;;;;;;76.83;32.47;;;5.40;99.90;;;;;;4124442;28;20326;-57
2021/11/23 06:50:58;;;;;;;67.77;25.20;;;5.50;99.90;;;;;;4123372;28;20272;-56
2021/11/23 06:53:01;;;;;;;68.87;29.43;;;5.50;99.90;;;;;;4123998;28;20314;-59
2021/11/23 06:55:03;;;;;;;49.73;20.57;;;5.50;99.90;;;;;;4123152;28;20350;-55
2021/11/23 06:57:04;;;;;;;41.50;20.93;;;5.50;99.90;;;;;;4124664;28;20034;-58
2021/11/23 06:59:05;;;;;;;47.33;21.37;;;5.50;99.90;;;;;;4122434;28;20264;-59
2021/11/23 07:01:07;;;;;;;59.10;24.80;;;5.50;99.90;;;;;;4123413;28;20069;-59
2021/11/23 07:03:08;;;;;;;39.57;19.60;;;5.50;99.90;;;;;;4123272;28;20326;-59
2021/11/23 07:05:10;;;;;;;41.50;19.90;;;5.50;99.90;;;;;;4125117;28;20359;-57
2021/11/23 07:07:11;;;;;;;52.07;24.17;;;5.50;99.90;;;;;;4123214;28;20920;-58
2021/11/23 07:09:12;;;;;;;47.13;23.17;;;5.50;99.90;;;;;;4124227;28;20276;-56
2021/11/23 07:11:14;;;;;;;51.67;23.53;;;5.50;99.90;;;;;;4122662;28;20034;-59
2021/11/23 07:13:15;;;;;;;59.03;27.57;;;5.50;99.90;;;;;;4123986;28;20268;-56
2021/11/23 07:15:16;;;;;;;46.17;21.43;;;5.50;99.90;;;;;;4123094;28;20358;-62
2021/11/23 07:17:17;;;;;;;39.90;18.93;;;5.50;99.90;;;;;;4122951;28;20326;-57
2021/11/23 07:19:18;;;;;;;39.63;18.10;;;5.50;99.90;;;;;;4123970;28;20252;-58
2021/11/23 07:21:19;;;;;;;40.33;19.40;;;5.50;99.90;;;;;;4122869;28;20101;-60
2021/11/23 07:23:21;;;;;;;35.33;16.50;;;5.50;99.90;;;;;;4123156;28;20280;-60
2021/11/23 07:25:23;;;;;;;34.90;17.13;;;5.50;99.90;;;;;;4125444;28;20109;-56
2021/11/23 07:27:24;;;;;;;29.63;14.73;;;5.50;99.90;;;;;;4127506;28;20998;-59
2021/11/23 07:29:25;;;;;;;29.57;14.17;;;5.60;99.90;;;;;;4125671;28;20101;-57
2021/11/23 07:31:27;;;;;;;34.87;15.73;;;5.50;99.90;;;;;;4127966;28;21145;-59
2021/11/23 07:33:28;;;;;;;32.97;15.10;;;5.50;99.90;;;;;;4126307;28;20105;-58
2021/11/23 07:35:29;;;;;;;32.67;14.93;;;5.50;99.90;;;;;;4127990;28;20295;-58
2021/11/23 07:37:36;;;;;;;32.23;15.67;;;5.50;99.90;;;;;;4125728;28;20046;-57
2021/11/23 07:39:37;;;;;;;30.60;15.27;;;5.50;99.90;;;;;;4127385;28;20334;-57
2021/11/23 07:41:39;;;;;;;31.43;14.67;;;5.50;99.90;;;;;;4126001;28;20105;-59
2021/11/23 07:43:40;;;;;;;31.13;15.73;;;5.50;99.90;;;;;;4127013;28;20542;-56
2021/11/23 07:45:42;;;;;;;28.90;14.37;;;5.50;99.90;;;;;;4126485;28;20054;-58
2021/11/23 07:47:43;;;;;;;28.83;14.10;;;5.50;99.90;;;;;;4126846;28;20260;-62
2021/11/23 07:49:44;;;;;;;29.40;14.17;;;5.50;99.90;;;;;;4126831;28;20264;-59
2021/11/23 07:51:46;;;;;;;29.33;15.23;;;5.50;99.90;;;;;;4125859;28;20136;-58
2021/11/23 07:53:47;;;;;;;27.57;15.03;;;5.50;99.90;;;;;;4126685;28;20318;-56
2021/11/23 07:55:49;;;;;;;27.53;12.30;;;5.50;99.90;;;;;;4125852;28;20521;-58
2021/11/23 07:57:50;;;;;;;26.03;14.20;;;5.50;99.90;;;;;;4127768;28;20085;-57
2021/11/23 07:59:51;;;;;;;22.43;13.00;;;5.50;99.90;;;;;;4125676;28;20275;-58
2021/11/23 08:01:52;;;;;;;25.17;12.87;;;5.50;99.90;;;;;;4126681;28;20606;-58
2021/11/23 08:03:54;;;;;;;23.73;11.43;;;5.50;99.90;;;;;;4125105;28;20331;-55
2021/11/23 08:05:55;;;;;;;24.27;12.40;;;5.50;99.90;;;;;;4127618;28;20042;-54
2021/11/23 08:07:56;;;;;;;17.97;9.93;;;5.50;99.90;;;;;;4125572;28;20491;-58
2021/11/23 08:09:57;;;;;;;19.73;10.60;;;5.40;99.90;;;;;;4126862;28;20272;-55
2021/11/23 08:11:58;;;;;;;20.33;10.77;;;5.50;99.90;;;;;;4125348;28;20264;-56
2021/11/23 08:14:00;;;;;;;21.77;11.00;;;5.50;99.90;;;;;;4125224;28;20272;-56
2021/11/23 08:16:05;;;;;;;20.97;10.17;;;5.50;99.90;;;;;;4125471;28;20479;-61
2021/11/23 08:18:09;;;;;;;21.73;10.87;;;5.50;99.90;;;;;;4125828;28;20346;-55
2021/11/23 08:20:11;;;;;;;19.27;9.80;;;5.60;99.90;;;;;;4125975;28;20314;-55
2021/11/23 08:22:12;;;;;;;21.50;9.63;;;5.60;99.90;;;;;;4125984;28;20326;-57
2021/11/23 08:24:13;;;;;;;15.70;8.37;;;5.60;99.90;;;;;;4126255;28;20042;-58
2021/11/23 08:26:15;;;;;;;15.10;8.10;;;5.60;99.90;;;;;;4124710;28;20338;-60
2021/11/23 08:28:18;;;;;;;15.03;8.00;;;5.60;99.90;;;;;;4124933;28;20077;-55
2021/11/23 08:30:21;;;;;;;16.37;8.57;;;5.50;99.90;;;;;;4124500;28;20264;-58
2021/11/23 08:32:22;;;;;;;14.97;7.83;;;5.70;99.90;;;;;;4125474;28;20299;-58
2021/11/23 08:34:23;;;;;;;20.43;8.80;;;5.70;99.90;;;;;;4124452;28;20280;-54
2021/11/23 08:36:24;;;;;;;19.33;7.93;;;5.70;99.90;;;;;;4124738;28;20042;-58
2021/11/23 08:38:26;;;;;;;13.50;8.30;;;5.70;99.90;;;;;;4124226;28;20280;-59
2021/11/23 08:40:27;;;;;;;13.60;7.70;;;5.80;99.90;;;;;;4122317;28;20284;-56
2021/11/23 08:42:28;;;;;;;15.03;8.50;;;5.70;99.90;;;;;;4123847;28;20050;-57
2021/11/23 08:44:29;;;;;;;13.33;7.10;;;5.70;99.90;;;;;;4125025;28;20806;-56
2021/11/23 08:46:30;;;;;;;12.80;6.60;;;5.70;99.90;;;;;;4124131;28;20684;-58
2021/11/23 08:48:33;;;;;;;16.33;7.67;;;5.70;99.90;;;;;;4124221;28;20081;-56
2021/11/23 08:50:35;;;;;;;14.97;7.53;;;5.80;99.90;;;;;;4123942;28;20050;-58
2021/11/23 08:52:37;;;;;;;11.20;6.30;;;5.80;99.90;;;;;;4123738;28;20076;-59
2021/11/23 08:54:38;;;;;;;10.53;6.03;;;5.80;99.90;;;;;;4124750;28;20081;-57
2021/11/23 08:56:42;;;;;;;11.57;6.30;;;5.70;99.90;;;;;;4123974;28;20030;-57
2021/11/23 08:58:46;;;;;;;9.60;5.73;;;5.70;99.90;;;;;;4124522;28;21088;-60
2021/11/23 09:00:48;;;;;;;12.77;6.57;;;5.70;99.90;;;;;;4123856;28;20074;-60
2021/11/23 09:02:52;;;;;;;8.87;5.63;;;5.70;99.90;;;;;;4124925;28;20026;-58
2021/11/23 09:04:53;;;;;;;11.33;6.07;;;5.80;99.90;;;;;;4124177;28;20034;-56
2021/11/23 09:06:54;;;;;;;11.67;5.60;;;5.90;99.90;;;;;;4124968;28;20256;-59
2021/11/23 09:08:57;;;;;;;12.20;5.53;;;6.10;99.90;;;;;;4122929;28;20034;-58
2021/11/23 09:10:59;;;;;;;11.63;6.00;;;6.40;99.90;;;;;;4124269;28;20026;-56
2021/11/23 09:13:00;;;;;;;11.50;5.60;;;6.50;99.90;;;;;;4124217;28;20073;-59
2021/11/23 09:15:02;;;;;;;9.30;5.57;;;6.50;99.90;;;;;;4124159;28;20077;-56
2021/11/23 09:17:07;;;;;;;11.57;5.97;;;6.50;99.90;;;;;;4124340;28;20084;-58
2021/11/23 09:19:08;;;;;;;14.93;6.73;;;6.60;99.90;;;;;;4124062;28;20096;-57
2021/11/23 09:21:09;;;;;;;11.93;6.63;;;6.80;99.90;;;;;;4123484;28;20086;-58
2021/11/23 09:23:13;;;;;;;13.07;7.20;;;6.90;99.90;;;;;;4124048;28;20093;-58
2021/11/23 09:25:16;;;;;;;14.57;6.53;;;7.00;99.90;;;;;;4124090;28;20089;-59
2021/11/23 09:27:17;;;;;;;9.27;5.33;;;7.00;99.90;;;;;;4123781;28;20851;-57
2021/11/23 09:29:19;;;;;;;21.00;9.60;;;6.90;99.90;;;;;;4124341;28;20081;-56
2021/11/23 09:31:21;;;;;;;24.00;9.77;;;6.80;99.90;;;;;;4123350;28;20085;-59
2021/11/23 09:33:22;;;;;;;26.17;10.83;;;6.70;99.90;;;;;;4106799;28;20051;-58
2021/11/23 09:35:24;;;;;;;23.00;11.27;;;6.70;99.90;;;;;;4122802;28;20388;-58
2021/11/23 09:37:25;;;;;;;25.87;10.20;;;6.80;99.90;;;;;;4124342;28;20072;-59
2021/11/23 09:39:26;;;;;;;19.57;7.37;;;6.80;99.90;;;;;;4122665;28;20081;-55
2021/11/23 09:41:29;;;;;;;11.93;6.50;;;6.80;99.90;;;;;;4123807;28;20113;-56
2021/11/23 09:43:30;;;;;;;16.90;7.40;;;6.90;99.90;;;;;;4121687;28;20086;-60
2021/11/23 09:45:32;;;;;;;10.43;6.20;;;7.00;99.90;;;;;;4123845;28;20034;-58
2021/11/23 09:47:33;;;;;;;7.80;4.90;;;7.10;99.90;;;;;;4123161;28;20038;-57
2021/11/23 09:49:34;;;;;;;13.30;7.37;;;7.00;99.90;;;;;;4123850;28;20475;-57
2021/11/23 09:51:36;;;;;;;11.00;6.40;;;7.00;99.90;;;;;;4123694;28;20073;-58
2021/11/23 09:53:37;;;;;;;9.90;5.77;;;6.90;99.90;;;;;;4123181;28;20069;-60
2021/11/23 09:55:39;;;;;;;7.63;4.07;;;6.90;99.90;;;;;;4123684;28;20567;-60
2021/11/23 09:57:40;;;;;;;9.70;4.83;;;6.90;99.90;;;;;;4123631;28;20050;-59
2021/11/23 09:59:41;;;;;;;9.20;5.00;;;7.00;99.90;;;;;;4123405;28;20471;-58
2021/11/23 10:01:58;;;;;;;7.83;4.37;;;7.10;99.90;;;;;;4122658;28;20431;-58
2021/11/23 10:04:06;;;;;;;6.20;4.27;;;7.10;99.90;;;;;;4123105;28;21559;-57
2021/11/23 10:06:13;;;;;;;6.37;3.70;;;7.10;99.90;;;;;;4123557;28;20042;-58
2021/11/23 10:08:17;;;;;;;7.13;3.80;;;7.00;99.90;;;;;;4123885;28;20085;-65
2021/11/23 10:10:23;;;;;;;8.87;4.30;;;7.10;99.90;;;;;;4122770;28;20030;-56
2021/11/23 10:12:24;;;;;;;6.33;3.90;;;7.10;99.90;;;;;;4123927;28;20080;-58
2021/11/23 10:14:26;;;;;;;13.43;4.93;;;7.20;99.90;;;;;;4123200;28;20076;-58
2021/11/23 10:16:42;;;;;;;6.40;3.43;;;7.30;99.90;;;;;;4123734;28;20031;-57
2021/11/23 10:18:43;;;;;;;10.13;4.97;;;7.30;99.90;;;;;;4121812;28;20120;-57
2021/11/23 10:20:55;;;;;;;7.67;4.40;;;7.40;99.90;;;;;;4123410;28;20360;-60
2021/11/23 10:23:08;;;;;;;5.23;3.77;;;7.40;99.90;;;;;;4121859;28;20561;-58
2021/11/23 10:25:09;;;;;;;7.87;3.97;;;7.40;99.90;;;;;;4122639;28;20050;-57
2021/11/23 10:27:17;;;;;;;5.40;3.60;;;7.20;99.90;;;;;;4122935;28;20486;-58
2021/11/23 10:29:18;;;;;;;7.40;4.10;;;7.10;99.90;;;;;;4123218;28;20038;-59